Terminal Aerodrome Forecast
Issued by NWS Atlanta, GA

Home | Current Version | Previous Version | Text Only | Print | Product List | Glossary On
Versions: 1 2 3 4 5 6 7 8 9 10 11 12 13 14 15
893
FTUS42 KFFC 221732
TAFMCN
TAF
KMCN 221732Z 2218/2318 19007KT P6SM SHRA SCT035 BKN060
      TEMPO 2218/2222 4SM TSRA OVC015CB
     FM230200 VRB03KT P6SM VCSH SCT035 OVC050
     FM230800 VRB03KT P6SM SCT035 BKN050
     FM231000 18004KT P6SM OVC025
     FM231200 16002KT 4SM BR OVC012
     FM231500 21003KT P6SM VCSH OVC018=

USA.gov is the U.S. government's official web portal to all federal, state and local government web resources and services.